createdAt,value
2017-01-14T00:00:12.438Z,1018.62
2017-01-14T00:00:53.076Z,1018.64
2017-01-14T00:01:33.788Z,1018.59
2017-01-14T00:02:14.450Z,1018.63
2017-01-14T00:02:55.092Z,1018.63
2017-01-14T00:03:35.735Z,1018.66
2017-01-14T00:04:16.372Z,1018.62
2017-01-14T00:04:56.999Z,1018.62
2017-01-14T00:05:37.680Z,1018.63
2017-01-14T00:06:19.016Z,1018.62
2017-01-14T00:06:59.654Z,1018.69
2017-01-14T00:07:40.338Z,1018.65
2017-01-14T00:08:20.971Z,1018.63
2017-01-14T00:09:01.604Z,1018.63
2017-01-14T00:09:42.345Z,1018.67
2017-01-14T00:10:23.060Z,1018.63
2017-01-14T00:11:03.696Z,1018.63
2017-01-14T00:11:44.428Z,1018.62
2017-01-14T00:12:25.154Z,1018.59
2017-01-14T00:13:05.860Z,1018.56
2017-01-14T00:13:46.423Z,1018.6
2017-01-14T00:14:27.140Z,1018.59
2017-01-14T00:15:07.794Z,1018.59
2017-01-14T00:15:48.429Z,1018.53
2017-01-14T00:16:29.097Z,1018.53
2017-01-14T00:17:09.724Z,1018.53
2017-01-14T00:17:50.360Z,1018.56
2017-01-14T00:18:31.020Z,1018.49
2017-01-14T00:19:11.737Z,1018.5
2017-01-14T00:19:52.367Z,1018.52
2017-01-14T00:20:33.016Z,1018.52
2017-01-14T00:21:13.778Z,1018.52
2017-01-14T00:21:54.437Z,1018.5
2017-01-14T00:22:35.054Z,1018.48
2017-01-14T00:23:15.791Z,1018.54
2017-01-14T00:23:56.448Z,1018.52
2017-01-14T00:24:37.081Z,1018.55
2017-01-14T00:25:17.750Z,1018.58
2017-01-14T00:25:58.394Z,1018.59
2017-01-14T00:26:39.024Z,1018.61
2017-01-14T00:27:19.662Z,1018.62
2017-01-14T00:28:00.352Z,1018.57
2017-01-14T00:28:40.983Z,1018.58
2017-01-14T00:29:21.621Z,1018.56
2017-01-14T00:30:02.313Z,1018.6
2017-01-14T00:30:42.947Z,1018.57
2017-01-14T00:31:23.636Z,1018.59
2017-01-14T00:32:04.302Z,1018.6
2017-01-14T00:32:44.934Z,1018.54
2017-01-14T00:33:25.581Z,1018.54
2017-01-14T00:34:06.229Z,1018.55
2017-01-14T00:34:46.853Z,1018.53
2017-01-14T00:35:27.589Z,1018.49
2017-01-14T00:36:08.312Z,1018.48
2017-01-14T00:36:48.949Z,1018.49
2017-01-14T00:37:29.580Z,1018.49
2017-01-14T00:38:10.244Z,1018.56
2017-01-14T00:38:50.874Z,1018.51
2017-01-14T00:39:31.505Z,1018.55
2017-01-14T00:40:12.159Z,1018.52
2017-01-14T00:40:52.798Z,1018.55
2017-01-14T00:41:33.429Z,1018.55
2017-01-14T00:42:14.061Z,1018.53
2017-01-14T00:42:54.733Z,1018.57
2017-01-14T00:43:35.376Z,1018.53
2017-01-14T00:44:16.077Z,1018.58
2017-01-14T00:44:56.732Z,1018.55
2017-01-14T00:45:37.367Z,1018.55
2017-01-14T00:46:18.038Z,1018.57
2017-01-14T00:46:58.673Z,1018.54
2017-01-14T00:47:39.309Z,1018.56
2017-01-14T00:48:19.970Z,1018.53
2017-01-14T00:49:00.632Z,1018.55
2017-01-14T00:49:41.269Z,1018.52
2017-01-14T00:50:21.959Z,1018.49
2017-01-14T00:51:02.642Z,1018.55
2017-01-14T00:51:43.338Z,1018.57
2017-01-14T00:52:23.981Z,1018.51
2017-01-14T00:53:04.614Z,1018.49
2017-01-14T00:53:45.314Z,1018.52
2017-01-14T00:54:25.957Z,1018.5
2017-01-14T00:55:06.653Z,1018.49
2017-01-14T00:55:47.331Z,1018.52
2017-01-14T00:56:27.966Z,1018.51
2017-01-14T00:57:08.617Z,1018.52
2017-01-14T00:57:49.242Z,1018.53
2017-01-14T00:58:29.873Z,1018.55
2017-01-14T00:59:10.545Z,1018.53
2017-01-14T00:59:51.211Z,1018.51
2017-01-14T01:00:31.840Z,1018.53
2017-01-14T01:01:12.549Z,1018.54
2017-01-14T01:01:53.258Z,1018.54
2017-01-14T01:02:33.973Z,1018.55
2017-01-14T01:03:14.608Z,1018.5
2017-01-14T01:03:55.308Z,1018.51
2017-01-14T01:04:35.978Z,1018.6
2017-01-14T01:05:16.628Z,1018.56
2017-01-14T01:05:57.344Z,1018.52
2017-01-14T01:06:38.017Z,1018.54
2017-01-14T01:07:18.674Z,1018.54
2017-01-14T01:07:59.288Z,1018.55
2017-01-14T01:08:39.945Z,1018.53
2017-01-14T01:09:20.650Z,1018.58
2017-01-14T01:10:01.297Z,1018.52
2017-01-14T01:10:41.934Z,1018.53
2017-01-14T01:11:22.623Z,1018.52
2017-01-14T01:12:03.264Z,1018.57
2017-01-14T01:12:44.013Z,1018.5
2017-01-14T01:13:24.678Z,1018.53
2017-01-14T01:14:05.308Z,1018.54
2017-01-14T01:14:45.992Z,1018.54
2017-01-14T01:15:26.626Z,1018.56
2017-01-14T01:16:07.286Z,1018.54
2017-01-14T01:16:47.968Z,1018.55
2017-01-14T01:17:28.638Z,1018.55
2017-01-14T01:18:09.295Z,1018.54
2017-01-14T01:18:49.941Z,1018.54
2017-01-14T01:19:30.573Z,1018.52
2017-01-14T01:20:11.270Z,1018.48
2017-01-14T01:20:51.897Z,1018.49
2017-01-14T01:21:32.624Z,1018.47
2017-01-14T01:22:13.291Z,1018.46
2017-01-14T01:22:53.920Z,1018.45
2017-01-14T01:23:34.641Z,1018.42
2017-01-14T01:24:15.324Z,1018.4
2017-01-14T01:24:56.043Z,1018.43
2017-01-14T01:25:36.691Z,1018.41
2017-01-14T01:26:17.335Z,1018.43
2017-01-14T01:26:58.001Z,1018.4
2017-01-14T01:27:38.647Z,1018.42
2017-01-14T01:28:19.353Z,1018.36
2017-01-14T01:29:00.122Z,1018.39
2017-01-14T01:29:40.775Z,1018.4
2017-01-14T01:30:21.414Z,1018.37
2017-01-14T01:31:02.043Z,1018.34
2017-01-14T01:31:42.705Z,1018.4
2017-01-14T01:32:23.360Z,1018.35
2017-01-14T01:33:04.016Z,1018.44
2017-01-14T01:33:44.694Z,1018.41
2017-01-14T01:34:25.322Z,1018.41
2017-01-14T01:35:05.962Z,1018.37
2017-01-14T01:35:46.653Z,1018.41
2017-01-14T01:36:27.302Z,1018.39
2017-01-14T01:37:08.031Z,1018.39
2017-01-14T01:37:48.710Z,1018.38
2017-01-14T01:38:29.342Z,1018.38
2017-01-14T01:39:10.054Z,1018.42
2017-01-14T01:39:50.767Z,1018.4
2017-01-14T01:40:31.454Z,1018.41
2017-01-14T01:41:12.077Z,1018.42
2017-01-14T01:41:52.803Z,1018.4
2017-01-14T01:42:33.479Z,1018.43
2017-01-14T01:43:14.113Z,1018.37
2017-01-14T01:43:54.829Z,1018.39
2017-01-14T01:44:35.465Z,1018.4
2017-01-14T01:45:16.099Z,1018.39
2017-01-14T01:45:56.791Z,1018.39
2017-01-14T01:46:37.485Z,1018.42
2017-01-14T01:47:18.187Z,1018.39
2017-01-14T01:47:58.824Z,1018.41
2017-01-14T01:48:39.561Z,1018.4
2017-01-14T01:49:20.195Z,1018.41
2017-01-14T01:50:00.834Z,1018.39
2017-01-14T01:50:41.485Z,1018.39
2017-01-14T01:51:22.226Z,1018.42
2017-01-14T01:52:02.927Z,1018.4
2017-01-14T01:52:43.582Z,1018.47
2017-01-14T01:53:24.297Z,1018.47
2017-01-14T01:54:04.927Z,1018.47
2017-01-14T01:54:45.553Z,1018.46
2017-01-14T01:55:26.254Z,1018.48
2017-01-14T01:56:06.915Z,1018.53
2017-01-14T01:56:47.549Z,1018.48
2017-01-14T01:57:28.210Z,1018.52
2017-01-14T01:58:08.949Z,1018.48
2017-01-14T01:58:49.636Z,1018.49
2017-01-14T01:59:30.236Z,1018.52
2017-01-14T02:00:10.974Z,1018.51
2017-01-14T02:00:51.701Z,1018.5
2017-01-14T02:01:32.322Z,1018.54
2017-01-14T02:02:13.009Z,1018.52
2017-01-14T02:02:53.649Z,1018.53
2017-01-14T02:03:34.284Z,1018.53
2017-01-14T02:04:14.944Z,1018.55
2017-01-14T02:04:55.575Z,1018.54
2017-01-14T02:05:36.209Z,1018.5
2017-01-14T02:06:16.881Z,1018.55
2017-01-14T02:06:57.536Z,1018.54
2017-01-14T02:07:38.163Z,1018.53
2017-01-14T02:08:18.864Z,1018.56
2017-01-14T02:08:59.495Z,1018.53
2017-01-14T02:09:40.123Z,1018.53
2017-01-14T02:10:20.819Z,1018.55
2017-01-14T02:11:01.457Z,1018.51
2017-01-14T02:11:42.120Z,1018.58
2017-01-14T02:12:22.752Z,1018.57
2017-01-14T02:13:03.449Z,1018.58
2017-01-14T02:13:44.147Z,1018.55
2017-01-14T02:14:24.791Z,1018.57
2017-01-14T02:15:05.489Z,1018.59
2017-01-14T02:15:46.229Z,1018.6
2017-01-14T02:16:26.860Z,1018.57
2017-01-14T02:17:07.555Z,1018.57
2017-01-14T02:17:48.292Z,1018.58
2017-01-14T02:18:28.936Z,1018.59
2017-01-14T02:19:09.569Z,1018.55
2017-01-14T02:19:50.200Z,1018.56
2017-01-14T02:20:30.886Z,1018.57
2017-01-14T02:21:11.506Z,1018.59
2017-01-14T02:21:52.213Z,1018.56
2017-01-14T02:22:32.886Z,1018.61
2017-01-14T02:23:13.516Z,1018.57
2017-01-14T02:23:54.169Z,1018.58
2017-01-14T02:24:34.800Z,1018.6
2017-01-14T02:25:15.422Z,1018.63
2017-01-14T02:25:56.138Z,1018.62
2017-01-14T02:26:36.834Z,1018.63
2017-01-14T02:27:17.502Z,1018.61
2017-01-14T02:27:58.168Z,1018.64
2017-01-14T02:28:38.807Z,1018.63
2017-01-14T02:29:19.516Z,1018.63
2017-01-14T02:30:00.174Z,1018.59
2017-01-14T02:30:40.869Z,1018.62
2017-01-14T02:31:21.537Z,1018.62
2017-01-14T02:32:02.174Z,1018.61
2017-01-14T02:32:42.834Z,1018.59
2017-01-14T02:33:23.498Z,1018.61
2017-01-14T02:34:04.133Z,1018.63
2017-01-14T02:34:44.829Z,1018.64
2017-01-14T02:35:25.499Z,1018.68
2017-01-14T02:36:06.155Z,1018.6
2017-01-14T02:36:46.787Z,1018.65
2017-01-14T02:37:27.527Z,1018.65
2017-01-14T02:38:08.175Z,1018.61
2017-01-14T02:38:48.823Z,1018.6
2017-01-14T02:39:29.536Z,1018.6
2017-01-14T02:40:10.198Z,1018.6
2017-01-14T02:40:50.832Z,1018.59
2017-01-14T02:41:31.577Z,1018.6
2017-01-14T02:42:12.284Z,1018.6
2017-01-14T02:42:52.952Z,1018.65
2017-01-14T02:43:33.577Z,1018.61
2017-01-14T02:44:14.205Z,1018.62
2017-01-14T02:44:54.907Z,1018.59
2017-01-14T02:45:35.527Z,1018.6
2017-01-14T02:46:16.250Z,1018.61
2017-01-14T02:46:56.919Z,1018.61
2017-01-14T02:47:37.550Z,1018.6
2017-01-14T02:48:18.211Z,1018.6
2017-01-14T02:48:58.838Z,1018.63
2017-01-14T02:49:39.469Z,1018.61
2017-01-14T02:50:20.501Z,1018.62
2017-01-14T02:51:01.737Z,1018.63
2017-01-14T02:51:42.427Z,1018.62
2017-01-14T02:52:23.140Z,1018.62
2017-01-14T02:53:04.128Z,1018.65
2017-01-14T02:53:44.918Z,1018.65
2017-01-14T02:54:25.551Z,1018.65
2017-01-14T02:55:06.194Z,1018.64
2017-01-14T02:55:46.877Z,1018.62
2017-01-14T02:56:27.508Z,1018.68
2017-01-14T02:57:08.149Z,1018.69
2017-01-14T02:57:48.816Z,1018.68
2017-01-14T02:58:29.449Z,1018.66
2017-01-14T02:59:10.075Z,1018.64
2017-01-14T02:59:50.737Z,1018.66
2017-01-14T03:00:31.439Z,1018.69
2017-01-14T03:01:12.076Z,1018.66
2017-01-14T03:01:52.778Z,1018.64
2017-01-14T03:02:33.401Z,1018.64
2017-01-14T03:03:14.064Z,1018.64
2017-01-14T03:03:54.709Z,1018.61
2017-01-14T03:04:35.343Z,1018.68
2017-01-14T03:05:15.993Z,1018.61
2017-01-14T03:05:56.656Z,1018.62
2017-01-14T03:06:37.370Z,1018.61
2017-01-14T03:07:18.019Z,1018.65
2017-01-14T03:07:58.641Z,1018.6
2017-01-14T03:08:39.409Z,1018.6
2017-01-14T03:09:20.069Z,1018.58
2017-01-14T03:10:00.698Z,1018.66
2017-01-14T03:10:41.399Z,1018.64
2017-01-14T03:11:22.024Z,1018.6
2017-01-14T03:12:02.657Z,1018.61
2017-01-14T03:12:43.350Z,1018.6
2017-01-14T03:13:24.057Z,1018.64
2017-01-14T03:14:04.751Z,1018.64
2017-01-14T03:14:45.390Z,1018.63
2017-01-14T03:15:26.097Z,1018.56
2017-01-14T03:16:06.762Z,1018.61
2017-01-14T03:16:47.401Z,1018.6
2017-01-14T03:17:28.119Z,1018.63
2017-01-14T03:18:08.741Z,1018.59
2017-01-14T03:18:49.365Z,1018.6
2017-01-14T03:19:30.062Z,1018.62
2017-01-14T03:20:10.729Z,1018.6
2017-01-14T03:20:51.396Z,1018.62
2017-01-14T03:21:32.054Z,1018.6
2017-01-14T03:22:12.762Z,1018.59
2017-01-14T03:22:53.447Z,1018.54
2017-01-14T03:23:34.084Z,1018.59
2017-01-14T03:24:14.774Z,1018.53
2017-01-14T03:24:55.517Z,1018.55
2017-01-14T03:25:36.216Z,1018.53
2017-01-14T03:26:16.806Z,1018.51
2017-01-14T03:26:57.430Z,1018.51
2017-01-14T03:27:38.058Z,1018.53
2017-01-14T03:28:18.736Z,1018.51
2017-01-14T03:28:59.366Z,1018.47
2017-01-14T03:29:40.029Z,1018.48
2017-01-14T03:30:20.657Z,1018.46
2017-01-14T03:31:01.346Z,1018.47
2017-01-14T03:31:42.019Z,1018.52
2017-01-14T03:32:22.659Z,1018.46
2017-01-14T03:33:03.285Z,1018.53
2017-01-14T03:33:43.983Z,1018.41
2017-01-14T03:34:24.608Z,1018.35
2017-01-14T03:35:05.315Z,1018.41
2017-01-14T03:35:46.000Z,1018.4
2017-01-14T03:36:26.635Z,1018.42
2017-01-14T03:37:07.351Z,1018.39
2017-01-14T03:37:47.974Z,1018.35
2017-01-14T03:38:28.597Z,1018.39
2017-01-14T03:39:09.291Z,1018.41
2017-01-14T03:39:49.943Z,1018.35
2017-01-14T03:40:30.647Z,1018.53
2017-01-14T03:41:11.240Z,1018.33
2017-01-14T03:41:51.926Z,1018.35
2017-01-14T03:42:32.591Z,1018.32
2017-01-14T03:43:13.235Z,1018.38
2017-01-14T03:43:53.919Z,1018.33
2017-01-14T03:44:34.567Z,1018.29
2017-01-14T03:45:15.198Z,1018.34
2017-01-14T03:45:55.888Z,1018.26
2017-01-14T03:46:36.588Z,1018.35
2017-01-14T03:47:17.223Z,1018.31
2017-01-14T03:47:57.935Z,1018.31
2017-01-14T03:48:38.617Z,1018.31
2017-01-14T03:49:19.317Z,1018.23
2017-01-14T03:49:59.960Z,1018.3
2017-01-14T03:50:40.594Z,1018.25
2017-01-14T03:51:21.288Z,1018.24
2017-01-14T03:52:01.914Z,1018.28
2017-01-14T03:52:42.635Z,1018.26
2017-01-14T03:53:23.303Z,1018.32
2017-01-14T03:54:03.933Z,1018.27
2017-01-14T03:54:44.660Z,1018.3
2017-01-14T03:55:25.343Z,1018.32
2017-01-14T03:56:06.044Z,1018.29
2017-01-14T03:56:46.699Z,1018.31
2017-01-14T03:57:27.324Z,1018.24
2017-01-14T03:58:08.019Z,1018.23
2017-01-14T03:58:48.649Z,1018.26
2017-01-14T03:59:29.368Z,1018.29
2017-01-14T04:00:10.034Z,1018.18
2017-01-14T04:00:50.674Z,1018.2
2017-01-14T04:01:31.426Z,1018.22
2017-01-14T04:02:12.062Z,1018.27
2017-01-14T04:02:52.760Z,1018.14
2017-01-14T04:03:33.353Z,1018.2
2017-01-14T04:04:13.993Z,1018.21
2017-01-14T04:04:54.700Z,1018.18
2017-01-14T04:05:35.344Z,1018.17
2017-01-14T04:06:15.976Z,1018.2
2017-01-14T04:06:56.673Z,1018.15
2017-01-14T04:07:37.300Z,1018.14
2017-01-14T04:08:18.003Z,1018.19
2017-01-14T04:08:58.687Z,1018.23
2017-01-14T04:09:39.319Z,1018.17
2017-01-14T04:10:20.039Z,1018.28
2017-01-14T04:11:00.719Z,1018.18
2017-01-14T04:11:41.427Z,1018.18
2017-01-14T04:12:22.081Z,1018.17
2017-01-14T04:13:02.712Z,1018.21
2017-01-14T04:13:43.436Z,1018.23
2017-01-14T04:14:24.058Z,1018.24
2017-01-14T04:15:04.787Z,1018.18
2017-01-14T04:15:45.529Z,1018.27
2017-01-14T04:16:26.244Z,1018.13
2017-01-14T04:17:06.889Z,1018.12
2017-01-14T04:17:47.565Z,1018.04
2017-01-14T04:18:28.199Z,1018.06
2017-01-14T04:19:08.820Z,1018.11
2017-01-14T04:19:49.551Z,1018.11
2017-01-14T04:20:30.210Z,1018.03
2017-01-14T04:21:10.857Z,1018.01
2017-01-14T04:21:51.499Z,1018.09
2017-01-14T04:22:32.133Z,1018.04
2017-01-14T04:23:12.765Z,1018.03
2017-01-14T04:23:53.440Z,1018.06
2017-01-14T04:24:34.105Z,1018.07
2017-01-14T04:25:14.737Z,1018.06
2017-01-14T04:25:55.436Z,1018.1
2017-01-14T04:26:36.120Z,1018.12
2017-01-14T04:27:16.811Z,1018.09
2017-01-14T04:27:57.451Z,1018.08
2017-01-14T04:28:38.087Z,1018.07
2017-01-14T04:29:18.784Z,1018.06
2017-01-14T04:29:59.419Z,1018.04
2017-01-14T04:30:40.120Z,1018.03
2017-01-14T04:31:20.792Z,1018.06
2017-01-14T04:32:01.421Z,1018.02
2017-01-14T04:32:42.151Z,1018.09
2017-01-14T04:33:22.832Z,1018.01
2017-01-14T04:34:03.531Z,1017.99
2017-01-14T04:34:44.175Z,1018.02
2017-01-14T04:35:24.802Z,1018.03
2017-01-14T04:36:05.476Z,1017.99
2017-01-14T04:36:46.100Z,1017.99
2017-01-14T04:37:26.743Z,1017.99
2017-01-14T04:38:07.443Z,1018.02
2017-01-14T04:38:48.084Z,1018.01
2017-01-14T04:39:28.779Z,1018
2017-01-14T04:40:09.448Z,1017.98
2017-01-14T04:40:50.080Z,1018.03
2017-01-14T04:41:30.830Z,1017.97
2017-01-14T04:42:11.486Z,1018.01
2017-01-14T04:42:52.187Z,1017.97
2017-01-14T04:43:32.829Z,1018.02
2017-01-14T04:44:13.458Z,1018
2017-01-14T04:44:54.167Z,1017.97
2017-01-14T04:45:34.797Z,1018.02
2017-01-14T04:46:15.518Z,1018
2017-01-14T04:46:56.178Z,1018.01
2017-01-14T04:47:36.809Z,1017.95
2017-01-14T04:48:17.443Z,1017.99
2017-01-14T04:48:58.102Z,1018
2017-01-14T04:49:38.736Z,1018.02
2017-01-14T04:50:19.473Z,1017.95
2017-01-14T04:51:00.224Z,1018
2017-01-14T04:51:40.889Z,1017.95
2017-01-14T04:52:21.520Z,1017.91
2017-01-14T04:53:02.244Z,1018.02
2017-01-14T04:53:42.902Z,1017.92
2017-01-14T04:54:23.538Z,1017.97
2017-01-14T04:55:04.191Z,1017.95
2017-01-14T04:55:44.870Z,1017.97
2017-01-14T04:56:25.502Z,1018.03
2017-01-14T04:57:06.190Z,1018.04
2017-01-14T04:57:46.881Z,1017.98
2017-01-14T04:58:27.570Z,1018.08
2017-01-14T04:59:08.214Z,1018.02
2017-01-14T04:59:48.869Z,1018.07
2017-01-14T05:00:29.554Z,1018.02
2017-01-14T05:01:10.192Z,1017.97
2017-01-14T05:01:50.899Z,1017.95
2017-01-14T05:02:31.622Z,1018
2017-01-14T05:03:12.257Z,1018.02
2017-01-14T05:03:52.970Z,1017.94
2017-01-14T05:04:33.636Z,1017.96
2017-01-14T05:05:14.314Z,1018.06
2017-01-14T05:05:54.939Z,1018.03
2017-01-14T05:06:35.646Z,1017.95
2017-01-14T05:07:16.277Z,1017.98
2017-01-14T05:07:56.911Z,1018.06
2017-01-14T05:08:37.615Z,1018.04
2017-01-14T05:09:18.276Z,1018.03
2017-01-14T05:09:58.907Z,1017.97
2017-01-14T05:10:39.552Z,1017.93
2017-01-14T05:11:20.210Z,1018.07
2017-01-14T05:12:00.839Z,1017.96
2017-01-14T05:12:41.497Z,1017.94
2017-01-14T05:13:22.186Z,1017.99
2017-01-14T05:14:02.824Z,1017.99
2017-01-14T05:14:43.544Z,1017.95
2017-01-14T05:15:24.205Z,1017.96
2017-01-14T05:16:04.877Z,1017.9
2017-01-14T05:16:45.520Z,1017.94
2017-01-14T05:17:26.160Z,1017.95
2017-01-14T05:18:06.853Z,1017.96
2017-01-14T05:18:47.478Z,1018.02
2017-01-14T05:19:28.195Z,1018
2017-01-14T05:20:08.872Z,1017.98
2017-01-14T05:20:49.497Z,1018
2017-01-14T05:21:30.224Z,1018.01
2017-01-14T05:22:10.899Z,1018.07
2017-01-14T05:22:51.555Z,1018.03
2017-01-14T05:23:32.190Z,1017.97
2017-01-14T05:24:12.911Z,1018.01
2017-01-14T05:24:53.627Z,1018.04
2017-01-14T05:25:34.248Z,1018.03
2017-01-14T05:26:14.954Z,1018.08
2017-01-14T05:26:55.624Z,1017.98
2017-01-14T05:27:36.260Z,1018.01
2017-01-14T05:28:16.949Z,1018.02
2017-01-14T05:28:57.732Z,1018
2017-01-14T05:29:38.383Z,1018.01
2017-01-14T05:30:19.010Z,1017.97
2017-01-14T05:30:59.724Z,1018.04
2017-01-14T05:31:40.394Z,1018.04
2017-01-14T05:32:21.023Z,1018.04
2017-01-14T05:33:01.704Z,1018.01
2017-01-14T05:33:42.358Z,1018.09
2017-01-14T05:34:22.991Z,1018.1
2017-01-14T05:35:03.740Z,1018.03
2017-01-14T05:35:44.393Z,1018.03
2017-01-14T05:36:25.056Z,1018.06
2017-01-14T05:37:05.706Z,1018.04
2017-01-14T05:37:46.347Z,1018.01
2017-01-14T05:38:27.018Z,1018.04
2017-01-14T05:39:07.664Z,1018.03
2017-01-14T05:39:48.373Z,1018
2017-01-14T05:40:29.053Z,1018.06
2017-01-14T05:41:09.683Z,1018.04
2017-01-14T05:41:50.330Z,1018.07
2017-01-14T05:42:30.962Z,1018.04
2017-01-14T05:43:11.591Z,1018
2017-01-14T05:43:52.238Z,1017.99
2017-01-14T05:44:32.986Z,1018.02
2017-01-14T05:45:13.618Z,1018.05
2017-01-14T05:45:54.300Z,1018.1
2017-01-14T05:46:35.029Z,1018.05
2017-01-14T05:47:15.741Z,1018.06
2017-01-14T05:47:56.373Z,1018.07
2017-01-14T05:48:37.064Z,1018.04
2017-01-14T05:49:17.699Z,1018.05
2017-01-14T05:49:58.316Z,1018.02
2017-01-14T05:50:38.988Z,1018.05
2017-01-14T05:51:19.702Z,1018.01
2017-01-14T05:52:00.328Z,1018
2017-01-14T05:52:41.033Z,1018.01
2017-01-14T05:53:21.740Z,1018.04
2017-01-14T05:54:02.415Z,1018
2017-01-14T05:54:43.058Z,1018.05
2017-01-14T05:55:23.762Z,1018.03
2017-01-14T05:56:04.521Z,1018.06
2017-01-14T05:56:45.157Z,1018.04
2017-01-14T05:57:25.817Z,1018.04
2017-01-14T05:58:06.568Z,1018.12
2017-01-14T05:58:47.276Z,1018.07
2017-01-14T05:59:27.908Z,1018.14
2017-01-14T06:00:08.594Z,1018.04
2017-01-14T06:00:49.226Z,1018.06
2017-01-14T06:01:29.865Z,1018.08
2017-01-14T06:02:10.519Z,1018.11
2017-01-14T06:02:51.156Z,1018.08
2017-01-14T06:03:31.788Z,1018.04
2017-01-14T06:04:12.444Z,1018.05
2017-01-14T06:04:53.077Z,1018.07
2017-01-14T06:05:33.697Z,1017.98
2017-01-14T06:06:14.362Z,1018.13
2017-01-14T06:06:54.997Z,1018.1
2017-01-14T06:07:35.638Z,1018.07
2017-01-14T06:08:16.310Z,1018.08
2017-01-14T06:08:56.977Z,1018.09
2017-01-14T06:09:37.611Z,1018.11
2017-01-14T06:10:18.317Z,1018.06
2017-01-14T06:10:58.972Z,1018.09
2017-01-14T06:11:39.706Z,1018.08
2017-01-14T06:12:20.348Z,1018.07
2017-01-14T06:13:01.105Z,1018.07
2017-01-14T06:13:41.732Z,1018.06
2017-01-14T06:14:22.371Z,1018.11
2017-01-14T06:15:03.028Z,1018.08
2017-01-14T06:15:43.699Z,1018.11
2017-01-14T06:16:24.330Z,1018.07
2017-01-14T06:17:05.025Z,1018.15
2017-01-14T06:17:48.487Z,1018.14
2017-01-14T06:18:29.135Z,1018.2
2017-01-14T06:19:09.761Z,1018.18
2017-01-14T06:19:50.398Z,1018.19
2017-01-14T06:20:31.035Z,1018.2
2017-01-14T06:21:11.783Z,1018.18
2017-01-14T06:21:52.494Z,1018.23
2017-01-14T06:22:33.136Z,1018.28
2017-01-14T06:23:13.747Z,1018.28
2017-01-14T06:23:54.405Z,1018.24
2017-01-14T06:24:35.062Z,1018.25
2017-01-14T06:25:15.687Z,1018.32
2017-01-14T06:25:56.348Z,1018.29
2017-01-14T06:26:36.997Z,1018.31
2017-01-14T06:27:17.615Z,1018.3
2017-01-14T06:27:58.359Z,1018.32
2017-01-14T06:28:39.099Z,1018.31
2017-01-14T06:29:19.728Z,1018.3
2017-01-14T06:30:00.370Z,1018.36
2017-01-14T06:30:40.998Z,1018.31
2017-01-14T06:31:21.633Z,1018.31
2017-01-14T06:32:02.302Z,1018.36
2017-01-14T06:32:43.041Z,1018.35
2017-01-14T06:33:23.670Z,1018.33
2017-01-14T06:34:04.326Z,1018.27
2017-01-14T06:34:44.985Z,1018.33
2017-01-14T06:35:25.607Z,1018.35
2017-01-14T06:36:06.274Z,1018.34
2017-01-14T06:36:47.661Z,1018.37
2017-01-14T06:37:28.302Z,1018.34
2017-01-14T06:38:08.936Z,1018.36
2017-01-14T06:38:49.652Z,1018.33
2017-01-14T06:39:30.291Z,1018.32
2017-01-14T06:40:10.982Z,1018.35
2017-01-14T06:40:51.662Z,1018.35
2017-01-14T06:41:32.299Z,1018.34
2017-01-14T06:42:13.012Z,1018.4
2017-01-14T06:42:53.642Z,1018.38
2017-01-14T06:43:34.270Z,1018.37
2017-01-14T06:44:14.978Z,1018.35
2017-01-14T06:44:55.692Z,1018.37
2017-01-14T06:45:36.372Z,1018.39
2017-01-14T06:46:17.010Z,1018.44
2017-01-14T06:46:57.711Z,1018.36
2017-01-14T06:47:38.476Z,1018.37
2017-01-14T06:48:19.127Z,1018.41
2017-01-14T06:48:59.766Z,1018.44
2017-01-14T06:49:40.397Z,1018.51
2017-01-14T06:50:21.022Z,1018.46
2017-01-14T06:51:01.695Z,1018.46
2017-01-14T06:51:42.416Z,1018.47
2017-01-14T06:52:23.095Z,1018.53
2017-01-14T06:53:03.727Z,1018.52
2017-01-14T06:53:44.434Z,1018.5
2017-01-14T06:54:25.105Z,1018.52
2017-01-14T06:55:05.732Z,1018.49
2017-01-14T06:55:46.407Z,1018.55
2017-01-14T06:56:27.069Z,1018.52
2017-01-14T06:57:07.699Z,1018.49
2017-01-14T06:57:48.414Z,1018.46
2017-01-14T06:58:29.077Z,1018.47
2017-01-14T06:59:09.729Z,1018.45
2017-01-14T06:59:50.362Z,1018.5
2017-01-14T07:00:31.091Z,1018.51
2017-01-14T07:01:11.745Z,1018.5
2017-01-14T07:01:52.377Z,1018.49
2017-01-14T07:02:33.104Z,1018.48
2017-01-14T07:03:13.759Z,1018.47
2017-01-14T07:03:54.389Z,1018.49
2017-01-14T07:04:35.051Z,1018.52
2017-01-14T07:05:15.687Z,1018.52
2017-01-14T07:05:56.318Z,1018.5
2017-01-14T07:06:36.973Z,1018.57
2017-01-14T07:07:17.648Z,1018.58
2017-01-14T07:07:58.280Z,1018.53
2017-01-14T07:08:38.992Z,1018.49
2017-01-14T07:09:19.660Z,1018.52
2017-01-14T07:10:00.374Z,1018.54
2017-01-14T07:10:41.023Z,1018.54
2017-01-14T07:11:21.753Z,1018.58
2017-01-14T07:12:02.416Z,1018.6
2017-01-14T07:12:43.045Z,1018.56
2017-01-14T07:13:23.719Z,1018.6
2017-01-14T07:14:04.387Z,1018.58
2017-01-14T07:14:45.015Z,1018.6
2017-01-14T07:15:25.648Z,1018.58
2017-01-14T07:16:06.318Z,1018.58
2017-01-14T07:16:46.967Z,1018.59
2017-01-14T07:17:27.660Z,1018.57
2017-01-14T07:18:08.387Z,1018.58
2017-01-14T07:18:49.112Z,1018.62
2017-01-14T07:19:29.752Z,1018.6
2017-01-14T07:20:10.443Z,1018.58
2017-01-14T07:20:51.117Z,1018.58
2017-01-14T07:21:31.746Z,1018.58
2017-01-14T07:22:12.425Z,1018.55
2017-01-14T07:22:53.052Z,1018.56
2017-01-14T07:23:33.681Z,1018.61
2017-01-14T07:24:14.389Z,1018.57
2017-01-14T07:24:55.093Z,1018.62
2017-01-14T07:25:35.784Z,1018.6
2017-01-14T07:26:16.421Z,1018.6
2017-01-14T07:26:57.131Z,1018.61
2017-01-14T07:27:37.798Z,1018.6
2017-01-14T07:28:18.428Z,1018.64
2017-01-14T07:28:59.093Z,1018.65
2017-01-14T07:29:39.812Z,1018.6
2017-01-14T07:30:20.459Z,1018.64
2017-01-14T07:31:01.120Z,1018.62
2017-01-14T07:31:41.751Z,1018.66
2017-01-14T07:32:22.413Z,1018.59
2017-01-14T07:33:03.036Z,1018.65
2017-01-14T07:33:43.692Z,1018.68
2017-01-14T07:34:24.391Z,1018.64
2017-01-14T07:35:05.037Z,1018.61
2017-01-14T07:35:45.674Z,1018.68
2017-01-14T07:36:26.371Z,1018.7
2017-01-14T07:37:07.014Z,1018.69
2017-01-14T07:37:47.752Z,1018.67
2017-01-14T07:38:28.482Z,1018.66
2017-01-14T07:39:09.144Z,1018.65
2017-01-14T07:39:49.769Z,1018.66
2017-01-14T07:40:30.497Z,1018.66
2017-01-14T07:41:11.166Z,1018.68
2017-01-14T07:41:51.794Z,1018.7
2017-01-14T07:42:32.510Z,1018.73
2017-01-14T07:43:13.275Z,1018.64
2017-01-14T07:43:53.938Z,1018.68
2017-01-14T07:44:34.567Z,1018.65
2017-01-14T07:45:15.211Z,1018.7
2017-01-14T07:45:55.847Z,1018.71
2017-01-14T07:46:36.509Z,1018.64
2017-01-14T07:47:17.140Z,1018.7
2017-01-14T07:47:57.799Z,1018.72
2017-01-14T07:48:38.436Z,1018.69
2017-01-14T07:49:19.059Z,1018.7
2017-01-14T07:49:59.726Z,1018.75
2017-01-14T07:50:40.346Z,1018.73
2017-01-14T07:51:21.072Z,1018.74
2017-01-14T07:52:01.750Z,1018.72
2017-01-14T07:52:42.390Z,1018.8
2017-01-14T07:53:23.084Z,1018.77
2017-01-14T07:54:03.858Z,1018.76
2017-01-14T07:54:44.528Z,1018.72
2017-01-14T07:55:25.162Z,1018.75
2017-01-14T07:56:05.889Z,1018.76
2017-01-14T07:56:46.542Z,1018.77
2017-01-14T07:57:27.171Z,1018.77
2017-01-14T07:58:07.820Z,1018.76
2017-01-14T07:58:48.512Z,1018.74
2017-01-14T07:59:29.134Z,1018.79
2017-01-14T08:00:09.858Z,1018.72
2017-01-14T08:00:50.486Z,1018.76
2017-01-14T08:01:31.111Z,1018.76
2017-01-14T08:02:11.785Z,1018.77
2017-01-14T08:02:52.502Z,1018.84
2017-01-14T08:03:33.229Z,1018.84
2017-01-14T08:04:13.812Z,1018.79
2017-01-14T08:04:54.438Z,1018.76
2017-01-14T08:05:35.127Z,1018.75
2017-01-14T08:06:15.718Z,1018.78
2017-01-14T08:06:56.376Z,1018.76
2017-01-14T08:07:37.081Z,1018.77
2017-01-14T08:08:17.724Z,1018.76
2017-01-14T08:08:58.364Z,1018.75
2017-01-14T08:09:39.058Z,1018.76
2017-01-14T08:10:19.689Z,1018.75
2017-01-14T08:11:00.404Z,1018.82
2017-01-14T08:11:41.069Z,1018.75
2017-01-14T08:12:21.701Z,1018.82
2017-01-14T08:13:02.433Z,1018.82
2017-01-14T08:13:43.099Z,1018.75
2017-01-14T08:14:23.763Z,1018.85